Time;durP1;ratioP1;P1;durP2;ratioP2;P2;SDS_P1;SDS_P2;PMS_P1;PMS_P2;Temp;Humidity;BMP_temperature;BMP_pressure;BME280_temperature;BME280_humidity;BME280_pressure;Samples;Min_cycle;Max_cycle;Signal;HPM_P1;HPM_P2
2022/12/14 00:01:43;;;;;;;;;;;4.00;79.30;;;;;;5035857;28;19990;-87
2022/12/14 00:04:09;;;;;;;;;;;4.00;79.20;;;;;;5035338;28;19948;-87
2022/12/14 00:06:34;;;;;;;;;;;4.00;78.60;;;;;;5035828;28;19994;-87
2022/12/14 00:09:01;;;;;;;;;;;3.90;78.10;;;;;;5036608;28;19946;-87
2022/12/14 00:11:27;;;;;;;;;;;3.80;78.50;;;;;;5034616;28;20418;-87
2022/12/14 00:13:54;;;;;;;;;;;3.70;78.70;;;;;;5036567;28;19941;-87
2022/12/14 00:16:19;;;;;;;;;;;3.70;78.90;;;;;;5036755;28;19941;-87
2022/12/14 00:18:48;;;;;;;;;;;3.60;79.00;;;;;;5036406;28;20057;-87
2022/12/14 00:21:13;;;;;;;;;;;3.60;79.50;;;;;;5034287;28;20474;-87
2022/12/14 00:23:40;;;;;;;;;;;3.70;80.50;;;;;;5034435;28;19945;-87
2022/12/14 00:26:25;;;;;;;;;;;3.70;81.00;;;;;;5035128;28;19942;-88
2022/12/14 00:28:52;;;;;;;;;;;3.70;80.80;;;;;;5035487;28;19990;-87
2022/12/14 00:31:18;;;;;;;;;;;3.80;81.50;;;;;;5035618;28;19945;-87
2022/12/14 00:33:43;;;;;;;;;;;3.80;82.30;;;;;;5036160;28;19938;-88
2022/12/14 00:36:10;;;;;;;;;;;3.80;82.20;;;;;;5036108;28;20085;-87
2022/12/14 00:38:35;;;;;;;;;;;3.90;82.00;;;;;;5032506;28;19967;-87
2022/12/14 00:41:01;;;;;;;;;;;3.90;81.90;;;;;;5035317;28;19955;-87
2022/12/14 00:43:26;;;;;;;;;;;3.80;81.70;;;;;;5035998;28;19949;-87
2022/12/14 00:45:52;;;;;;;;;;;3.90;81.40;;;;;;5035942;28;19941;-87
2022/12/14 00:48:21;;;;;;;;;;;4.00;80.20;;;;;;5035344;28;19948;-87
2022/12/14 00:50:48;;;;;;;;;;;3.90;80.60;;;;;;5035120;28;20395;-87
2022/12/14 00:53:14;;;;;;;;;;;3.90;80.70;;;;;;5035705;28;19952;-87
2022/12/14 00:55:40;;;;;;;;;;;3.80;80.80;;;;;;5033740;28;19953;-87
2022/12/14 00:58:06;;;;;;;;;;;3.80;81.60;;;;;;5034697;28;20492;-87
2022/12/14 01:00:32;;;;;;;;;;;3.70;81.20;;;;;;5034862;28;19948;-87
2022/12/14 01:02:57;;;;;;;;;;;3.50;80.40;;;;;;5034967;28;19945;-87
2022/12/14 01:05:23;;;;;;;;;;;3.50;80.60;;;;;;5032924;28;20000;-87
2022/12/14 01:07:48;;;;;;;;;;;3.50;80.20;;;;;;5035289;28;19950;-87
2022/12/14 01:10:14;;;;;;;;;;;3.50;80.50;;;;;;5034036;28;20317;-87
2022/12/14 01:12:39;;;;;;;;;;;3.40;81.10;;;;;;5032439;28;19950;-87
2022/12/14 01:15:05;;;;;;;;;;;3.40;80.80;;;;;;5035413;28;19953;-87
2022/12/14 01:17:31;;;;;;;;;;;3.40;80.70;;;;;;5035276;28;19971;-87
2022/12/14 01:19:56;;;;;;;;;;;3.40;80.80;;;;;;5035571;28;20289;-87
2022/12/14 01:22:22;;;;;;;;;;;3.40;80.60;;;;;;5033391;28;20410;-87
2022/12/14 01:24:47;;;;;;;;;;;3.40;79.70;;;;;;5035248;28;19938;-87
2022/12/14 01:27:13;;;;;;;;;;;3.50;79.70;;;;;;5033187;28;19984;-87
2022/12/14 01:29:38;;;;;;;;;;;3.70;79.80;;;;;;5034893;28;20424;-87
2022/12/14 01:32:04;;;;;;;;;;;3.80;79.70;;;;;;5034168;28;20373;-87
2022/12/14 01:34:30;;;;;;;;;;;3.80;80.60;;;;;;5035310;28;19942;-87
2022/12/14 01:36:55;;;;;;;;;;;3.80;79.50;;;;;;5034901;28;19981;-87
2022/12/14 01:39:21;;;;;;;;;;;3.80;77.00;;;;;;5034647;28;19951;-87
2022/12/14 01:41:49;;;;;;;;;;;3.90;75.90;;;;;;5034010;28;19953;-88
2022/12/14 01:44:17;;;;;;;;;;;3.80;76.90;;;;;;5034858;28;19942;-88
2022/12/14 01:46:45;;;;;;;;;;;3.70;77.30;;;;;;5034493;28;19992;-87
2022/12/14 01:49:23;;;;;;;;;;;3.70;77.20;;;;;;5034812;28;19945;-88
2022/12/14 01:51:55;;;;;;;;;;;3.80;77.50;;;;;;5033992;28;19945;-87
2022/12/14 01:54:21;;;;;;;;;;;3.80;78.70;;;;;;5034563;28;20056;-88
2022/12/14 01:56:47;;;;;;;;;;;3.80;79.40;;;;;;5033103;28;20015;-87
2022/12/14 01:59:20;;;;;;;;;;;4.00;79.30;;;;;;5034536;28;20358;-88
2022/12/14 02:01:46;;;;;;;;;;;4.20;78.90;;;;;;5033795;28;20315;-88
2022/12/14 02:04:12;;;;;;;;;;;4.50;78.30;;;;;;5034417;28;19943;-88
2022/12/14 02:06:39;;;;;;;;;;;4.70;77.30;;;;;;5031324;28;19964;-88
2022/12/14 02:09:11;;;;;;;;;;;4.60;76.80;;;;;;5033802;28;19942;-88
2022/12/14 02:11:46;;;;;;;;;;;4.40;77.50;;;;;;5033061;28;20099;-88
2022/12/14 02:14:11;;;;;;;;;;;4.40;79.00;;;;;;5047429;28;20033;-87
2022/12/14 02:16:38;;;;;;;;;;;4.40;78.10;;;;;;5033474;28;20405;-87
2022/12/14 02:19:03;;;;;;;;;;;4.30;77.90;;;;;;5032846;28;19963;-87
2022/12/14 02:21:29;;;;;;;;;;;4.20;79.00;;;;;;5048964;22;19978;-87
2022/12/14 02:24:17;;;;;;;;;;;4.00;78.90;;;;;;5053668;28;19939;-87
2022/12/14 02:26:57;;;;;;;;;;;3.90;78.70;;;;;;5052593;28;19945;-87
2022/12/14 02:29:35;;;;;;;;;;;3.80;80.00;;;;;;5053910;28;20065;-88
2022/12/14 02:32:14;;;;;;;;;;;3.80;83.00;;;;;;5053846;28;20035;-88
2022/12/14 02:34:42;;;;;;;;;;;3.80;83.40;;;;;;5053541;28;19994;-88
2022/12/14 02:37:20;;;;;;;;;;;3.80;83.40;;;;;;5052983;28;19996;-88
2022/12/14 02:40:10;;;;;;;;;;;3.80;83.60;;;;;;5053751;28;19987;-87
2022/12/14 02:42:36;;;;;;;;;;;3.80;83.20;;;;;;5051852;28;19946;-87
2022/12/14 02:45:04;;;;;;;;;;;3.70;83.80;;;;;;5053243;28;19961;-87
2022/12/14 02:47:44;;;;;;;;;;;3.50;84.40;;;;;;5034964;28;19949;-87
2022/12/14 02:50:10;;;;;;;;;;;3.60;85.00;;;;;;5053830;28;19937;-87
2022/12/14 02:52:54;;;;;;;;;;;3.60;84.70;;;;;;5053356;28;20048;-87
2022/12/14 02:55:22;;;;;;;;;;;3.70;83.90;;;;;;5053018;28;19946;-88
2022/12/14 02:57:48;;;;;;;;;;;3.80;84.10;;;;;;5052437;28;19953;-87
2022/12/14 03:00:14;;;;;;;;;;;3.80;83.40;;;;;;5053372;28;19938;-87
2022/12/14 03:02:42;;;;;;;;;;;3.90;82.20;;;;;;5053364;28;19960;-88
2022/12/14 03:05:08;;;;;;;;;;;3.80;80.70;;;;;;5053169;28;20033;-87
2022/12/14 03:07:40;;;;;;;;;;;3.80;79.40;;;;;;5052626;28;19948;-87
2022/12/14 03:10:15;;;;;;;;;;;3.80;79.70;;;;;;5053216;28;19940;-87
2022/12/14 03:12:43;;;;;;;;;;;3.70;81.80;;;;;;5051256;28;20052;-87
2022/12/14 03:15:11;;;;;;;;;;;3.70;81.90;;;;;;5051580;28;19954;-87
2022/12/14 03:17:38;;;;;;;;;;;3.50;81.50;;;;;;5053014;28;19972;-87
2022/12/14 03:20:06;;;;;;;;;;;3.50;81.70;;;;;;5053162;28;19982;-87
2022/12/14 03:22:43;;;;;;;;;;;3.50;81.90;;;;;;5052935;28;20064;-87
2022/12/14 03:25:15;;;;;;;;;;;3.40;81.20;;;;;;5051859;28;19946;-87
2022/12/14 03:27:47;;;;;;;;;;;3.50;81.30;;;;;;5051741;28;19947;-87
2022/12/14 03:30:14;;;;;;;;;;;3.50;81.10;;;;;;5052860;28;19942;-87
2022/12/14 03:32:42;;;;;;;;;;;3.80;81.40;;;;;;5053009;28;20001;-87
2022/12/14 03:35:19;;;;;;;;;;;3.80;81.10;;;;;;5051970;28;19945;-87
2022/12/14 03:37:55;;;;;;;;;;;3.90;80.20;;;;;;5052934;28;20464;-88
2022/12/14 03:40:27;;;;;;;;;;;3.90;80.10;;;;;;5052967;28;19983;-87
2022/12/14 03:43:13;;;;;;;;;;;3.90;79.50;;;;;;5051519;28;20040;-87
2022/12/14 03:45:57;;;;;;;;;;;3.90;79.80;;;;;;5051816;28;20007;-87
2022/12/14 03:48:32;;;;;;;;;;;3.90;80.00;;;;;;5034504;28;19941;-87
2022/12/14 03:51:05;;;;;;;;;;;3.80;78.90;;;;;;5046681;28;19952;-87
2022/12/14 03:53:53;;;;;;;;;;;3.70;80.00;;;;;;5044982;28;20045;-87
2022/12/14 03:56:19;;;;;;;;;;;3.70;79.90;;;;;;5014315;28;19960;-87
2022/12/14 03:58:59;;;;;;;;;;;3.60;79.70;;;;;;5051604;28;19966;-87
2022/12/14 04:01:34;;;;;;;;;;;3.50;79.00;;;;;;5052681;28;19982;-88
2022/12/14 04:04:05;;;;;;;;;;;3.50;78.60;;;;;;5051841;28;20041;-87
2022/12/14 04:06:37;;;;;;;;;;;3.40;80.50;;;;;;5052724;28;19949;-87
2022/12/14 04:09:12;;;;;;;;;;;3.40;82.00;;;;;;5052580;28;19938;-87
2022/12/14 04:20:03;;;;;;;;;;;3.40;81.70;;;;;;5052895;28;19944;-87
2022/12/14 04:22:31;;;;;;;;;;;3.40;81.90;;;;;;5051135;28;19992;-87
2022/12/14 04:27:43;;;;;;;;;;;3.50;81.60;;;;;;5051188;28;19993;-86
2022/12/14 04:30:10;;;;;;;;;;;3.40;82.30;;;;;;5052498;28;19943;-86
2022/12/14 04:32:38;;;;;;;;;;;3.40;83.30;;;;;;5050850;28;19947;-84
2022/12/14 04:35:13;;;;;;;;;;;3.40;83.30;;;;;;5052446;28;19944;-86
2022/12/14 04:37:41;;;;;;;;;;;3.40;83.40;;;;;;5054542;28;19961;-86
2022/12/14 04:40:11;;;;;;;;;;;3.40;83.40;;;;;;5056077;28;19937;-85
2022/12/14 04:42:45;;;;;;;;;;;3.30;83.60;;;;;;5054443;28;19999;-86
2022/12/14 04:45:14;;;;;;;;;;;3.30;83.50;;;;;;5055770;28;19946;-86
2022/12/14 04:47:42;;;;;;;;;;;3.30;83.40;;;;;;5055840;28;19995;-86
2022/12/14 04:50:18;;;;;;;;;;;3.30;83.30;;;;;;5056091;28;19945;-86
2022/12/14 04:52:51;;;;;;;;;;;3.30;83.00;;;;;;5054832;28;19961;-86
2022/12/14 04:55:25;;;;;;;;;;;3.30;82.80;;;;;;5037727;28;19945;-86
2022/12/14 04:58:12;;;;;;;;;;;3.30;82.60;;;;;;5053901;28;19961;-85
2022/12/14 05:00:47;;;;;;;;;;;3.30;82.60;;;;;;5035672;28;20404;-86
2022/12/14 05:03:20;;;;;;;;;;;3.30;82.70;;;;;;5043520;28;20433;-86
2022/12/14 05:05:56;;;;;;;;;;;3.30;82.40;;;;;;5055483;28;20422;-86
2022/12/14 05:08:29;;;;;;;;;;;3.40;81.70;;;;;;5054103;28;20412;-85
2022/12/14 05:10:56;;;;;;;;;;;3.30;82.10;;;;;;5054624;28;19971;-86
2022/12/14 05:13:24;;;;;;;;;;;3.40;81.60;;;;;;5035920;28;19953;-86
2022/12/14 05:15:53;;;;;;;;;;;3.40;81.60;;;;;;5055281;28;20526;-85
2022/12/14 05:18:19;;;;;;;;;;;3.50;81.50;;;;;;5054512;28;20435;-86
2022/12/14 05:20:45;;;;;;;;;;;3.40;81.20;;;;;;5054465;28;19944;-86
2022/12/14 05:23:11;;;;;;;;;;;3.40;81.70;;;;;;5054954;28;20477;-87
2022/12/14 05:25:36;;;;;;;;;;;3.40;81.90;;;;;;5055143;28;20032;-86
2022/12/14 05:28:02;;;;;;;;;;;3.50;82.20;;;;;;5053711;28;19995;-86
2022/12/14 05:30:28;;;;;;;;;;;3.50;82.50;;;;;;5054398;28;20000;-85
2022/12/14 05:32:53;;;;;;;;;;;3.50;82.80;;;;;;5054749;28;19972;-85
2022/12/14 05:35:19;;;;;;;;;;;3.70;83.30;;;;;;5054974;28;19945;-86
2022/12/14 05:37:44;;;;;;;;;;;3.60;82.80;;;;;;5054339;28;19961;-85
2022/12/14 05:40:10;;;;;;;;;;;3.60;82.50;;;;;;5054456;28;20392;-86
2022/12/14 05:42:36;;;;;;;;;;;3.60;82.50;;;;;;5053379;28;19946;-86
2022/12/14 05:45:02;;;;;;;;;;;3.60;82.60;;;;;;5052229;28;20002;-85
2022/12/14 05:47:27;;;;;;;;;;;3.60;82.90;;;;;;5054543;28;20482;-85
2022/12/14 05:49:53;;;;;;;;;;;3.50;83.30;;;;;;5054722;28;19942;-85
2022/12/14 05:52:19;;;;;;;;;;;3.50;83.80;;;;;;5054358;28;19954;-86
2022/12/14 05:54:44;;;;;;;;;;;3.40;84.20;;;;;;5053706;28;20000;-85
2022/12/14 05:57:10;;;;;;;;;;;3.40;84.60;;;;;;5053158;28;20423;-85
2022/12/14 05:59:36;;;;;;;;;;;3.40;85.20;;;;;;5051168;28;19942;-85
2022/12/14 06:02:01;;;;;;;;;;;3.50;85.10;;;;;;5053828;28;19986;-86
2022/12/14 06:04:27;;;;;;;;;;;3.50;85.30;;;;;;5052227;28;19989;-86
2022/12/14 06:06:52;;;;;;;;;;;3.50;85.20;;;;;;5051249;28;20414;-86
2022/12/14 06:09:18;;;;;;;;;;;3.50;85.10;;;;;;5054281;28;19935;-86
2022/12/14 06:11:44;;;;;;;;;;;3.40;85.40;;;;;;5054252;28;20415;-86
2022/12/14 06:14:10;;;;;;;;;;;3.30;85.70;;;;;;5046996;28;19950;-86
2022/12/14 06:16:38;;;;;;;;;;;3.30;86.00;;;;;;5052721;28;19945;-85
2022/12/14 06:19:04;;;;;;;;;;;3.40;86.10;;;;;;5036310;28;19966;-85
2022/12/14 06:21:31;;;;;;;;;;;3.40;86.30;;;;;;5034498;28;19973;-86
2022/12/14 06:23:57;;;;;;;;;;;3.40;86.50;;;;;;5047834;28;19947;-86
2022/12/14 06:26:23;;;;;;;;;;;3.50;86.60;;;;;;5052860;28;19939;-86
2022/12/14 06:28:49;;;;;;;;;;;3.40;86.30;;;;;;5054875;28;20473;-86
2022/12/14 06:31:16;;;;;;;;;;;3.40;86.30;;;;;;5048051;28;20040;-85
2022/12/14 06:33:42;;;;;;;;;;;3.40;86.20;;;;;;5047438;28;20051;-86
2022/12/14 06:36:25;;;;;;;;;;;3.40;86.10;;;;;;5048600;28;19993;-85
2022/12/14 06:38:51;;;;;;;;;;;3.40;86.10;;;;;;5050039;28;19967;-86
2022/12/14 06:41:17;;;;;;;;;;;3.40;86.50;;;;;;5052389;28;20404;-86
2022/12/14 06:43:42;;;;;;;;;;;3.40;86.60;;;;;;5050418;28;19955;-86
2022/12/14 06:46:08;;;;;;;;;;;3.40;86.90;;;;;;5053073;28;19950;-85
2022/12/14 06:48:34;;;;;;;;;;;3.40;87.20;;;;;;5052146;28;19939;-86
2022/12/14 06:51:00;;;;;;;;;;;3.40;87.50;;;;;;5051716;28;20304;-86
2022/12/14 06:53:25;;;;;;;;;;;3.30;87.80;;;;;;5045238;28;19960;-87
2022/12/14 06:55:51;;;;;;;;;;;3.20;88.20;;;;;;5047627;28;19954;-86
2022/12/14 06:58:16;;;;;;;;;;;3.20;88.60;;;;;;5050918;28;19957;-86
2022/12/14 07:00:43;;;;;;;;;;;3.20;89.00;;;;;;5043824;28;20037;-86
2022/12/14 07:03:09;;;;;;;;;;;3.20;89.30;;;;;;5049508;28;20439;-86
2022/12/14 07:05:34;;;;;;;;;;;3.10;89.50;;;;;;5048893;28;20059;-85
2022/12/14 07:08:00;;;;;;;;;;;3.20;89.60;;;;;;5044790;28;20323;-86
2022/12/14 07:10:26;;;;;;;;;;;3.20;89.80;;;;;;5048910;28;19950;-86
2022/12/14 07:12:51;;;;;;;;;;;3.20;90.00;;;;;;5051457;28;19955;-85
2022/12/14 07:15:17;;;;;;;;;;;3.20;90.30;;;;;;5045546;28;19949;-86
2022/12/14 07:17:42;;;;;;;;;;;3.10;90.40;;;;;;5048885;28;19957;-86
2022/12/14 07:20:08;;;;;;;;;;;3.10;90.50;;;;;;5046805;28;20009;-86
2022/12/14 07:22:34;;;;;;;;;;;3.10;90.60;;;;;;5044802;28;20012;-86
2022/12/14 07:25:00;;;;;;;;;;;3.20;90.80;;;;;;5046901;28;19944;-86
2022/12/14 07:27:26;;;;;;;;;;;3.20;90.60;;;;;;5046000;28;19973;-86
2022/12/14 07:29:51;;;;;;;;;;;3.20;90.50;;;;;;5042982;28;19949;-85
2022/12/14 07:32:17;;;;;;;;;;;3.20;90.50;;;;;;5046316;28;19987;-86
2022/12/14 07:34:42;;;;;;;;;;;3.30;90.50;;;;;;5045691;28;19953;-86
2022/12/14 07:37:08;;;;;;;;;;;3.30;90.60;;;;;;5045782;28;19941;-87
2022/12/14 07:39:33;;;;;;;;;;;3.30;90.70;;;;;;5047206;28;19971;-87
2022/12/14 07:41:59;;;;;;;;;;;3.40;90.80;;;;;;5048596;28;20431;-87
2022/12/14 07:44:24;;;;;;;;;;;3.50;90.60;;;;;;5051513;28;20408;-86
2022/12/14 07:46:51;;;;;;;;;;;3.60;90.50;;;;;;5047974;28;19947;-86
2022/12/14 07:49:17;;;;;;;;;;;3.60;90.30;;;;;;5041182;28;19950;-87
2022/12/14 07:51:43;;;;;;;;;;;3.60;90.20;;;;;;5051132;28;19949;-86
2022/12/14 07:54:10;;;;;;;;;;;3.60;90.10;;;;;;5030093;28;19943;-87
2022/12/14 07:56:38;;;;;;;;;;;3.70;90.10;;;;;;5050123;28;19941;-86
2022/12/14 07:59:05;;;;;;;;;;;3.60;90.00;;;;;;5042685;28;20321;-86
2022/12/14 08:01:32;;;;;;;;;;;3.60;90.00;;;;;;5044759;28;19952;-86
2022/12/14 08:03:59;;;;;;;;;;;3.70;90.10;;;;;;5046068;28;20070;-86
2022/12/14 08:06:26;;;;;;;;;;;3.70;90.00;;;;;;5048719;28;20391;-86
2022/12/14 08:08:52;;;;;;;;;;;3.70;90.00;;;;;;5046990;28;19956;-86
2022/12/14 08:11:21;;;;;;;;;;;4.00;90.00;;;;;;5048295;28;19965;-86
2022/12/14 08:13:46;;;;;;;;;;;4.10;89.50;;;;;;5049381;28;20383;-85
2022/12/14 08:16:15;;;;;;;;;;;4.20;89.30;;;;;;5045359;28;20027;-86
2022/12/14 08:18:41;;;;;;;;;;;4.50;88.20;;;;;;5051917;28;20100;-85
2022/12/14 08:21:08;;;;;;;;;;;4.50;87.40;;;;;;5038663;28;20419;-85
2022/12/14 08:23:34;;;;;;;;;;;4.80;86.60;;;;;;5035645;28;20080;-85
2022/12/14 08:26:00;;;;;;;;;;;4.90;85.60;;;;;;5048915;28;19942;-85
2022/12/14 08:28:26;;;;;;;;;;;4.90;85.20;;;;;;5049903;28;19952;-85
2022/12/14 08:30:51;;;;;;;;;;;4.80;85.40;;;;;;5045832;28;19949;-86
2022/12/14 08:33:17;;;;;;;;;;;4.60;85.70;;;;;;5048119;28;20411;-86
2022/12/14 08:35:43;;;;;;;;;;;4.50;85.80;;;;;;5049526;28;19957;-86
2022/12/14 08:38:09;;;;;;;;;;;4.40;86.60;;;;;;5049596;28;19958;-86
2022/12/14 08:40:34;;;;;;;;;;;4.70;86.60;;;;;;5032732;28;20324;-86
2022/12/14 08:43:00;;;;;;;;;;;4.80;86.30;;;;;;5048351;28;19944;-86
2022/12/14 08:45:25;;;;;;;;;;;4.70;85.90;;;;;;5047148;28;19954;-86
2022/12/14 08:47:51;;;;;;;;;;;4.50;85.80;;;;;;5047424;28;19952;-86
2022/12/14 08:50:16;;;;;;;;;;;4.60;85.40;;;;;;5050090;28;19941;-86
2022/12/14 08:52:45;;;;;;;;;;;4.50;84.70;;;;;;5043578;28;20017;-86
2022/12/14 08:55:10;;;;;;;;;;;4.40;85.40;;;;;;5052721;28;19993;-86
2022/12/14 08:57:36;;;;;;;;;;;4.40;86.10;;;;;;5042690;28;19963;-86
2022/12/14 09:00:02;;;;;;;;;;;4.40;85.90;;;;;;5050945;28;20083;-86
2022/12/14 09:02:27;;;;;;;;;;;4.20;86.40;;;;;;5046065;28;20009;-86
2022/12/14 09:04:53;;;;;;;;;;;4.20;85.80;;;;;;5048408;28;20359;-86
2022/12/14 09:07:19;;;;;;;;;;;4.30;85.50;;;;;;5046256;28;19942;-87
2022/12/14 09:09:44;;;;;;;;;;;4.30;85.40;;;;;;5049927;28;19960;-86
2022/12/14 09:12:10;;;;;;;;;;;4.50;85.20;;;;;;5047960;28;19996;-86
2022/12/14 09:14:35;;;;;;;;;;;4.70;84.90;;;;;;5049744;28;19947;-86
2022/12/14 09:17:01;;;;;;;;;;;4.70;85.00;;;;;;5044995;28;20396;-85
2022/12/14 09:19:27;;;;;;;;;;;4.70;84.80;;;;;;5047198;28;19952;-86
2022/12/14 09:21:53;;;;;;;;;;;4.60;84.90;;;;;;5049674;28;19978;-86
2022/12/14 09:24:19;;;;;;;;;;;4.70;84.40;;;;;;5050120;28;20007;-85
2022/12/14 09:26:45;;;;;;;;;;;4.70;84.20;;;;;;5052321;28;20025;-85
2022/12/14 09:29:14;;;;;;;;;;;4.70;83.40;;;;;;5047623;28;20478;-86
2022/12/14 09:31:40;;;;;;;;;;;4.60;83.30;;;;;;5049397;28;20000;-85
2022/12/14 09:34:05;;;;;;;;;;;4.60;83.50;;;;;;5050838;28;20419;-86
2022/12/14 09:36:31;;;;;;;;;;;4.60;83.50;;;;;;5050586;28;19940;-86
2022/12/14 09:38:58;;;;;;;;;;;4.70;83.00;;;;;;5053743;28;19946;-86
2022/12/14 09:41:32;;;;;;;;;;;4.60;83.20;;;;;;5052862;28;20011;-85
2022/12/14 09:44:04;;;;;;;;;;;4.80;83.30;;;;;;5049411;28;20427;-85
2022/12/14 09:46:32;;;;;;;;;;;4.80;83.00;;;;;;5044848;28;19988;-85
2022/12/14 09:49:00;;;;;;;;;;;4.80;82.40;;;;;;5052977;28;19963;-85
2022/12/14 09:51:29;;;;;;;;;;;4.90;82.00;;;;;;5051649;28;20036;-86
2022/12/14 09:53:59;;;;;;;;;;;4.90;82.50;;;;;;5031807;28;19949;-85
2022/12/14 09:56:25;;;;;;;;;;;5.00;82.30;;;;;;5050617;28;19986;-84
2022/12/14 09:58:54;;;;;;;;;;;5.00;81.90;;;;;;5050615;28;20022;-85
2022/12/14 10:01:23;;;;;;;;;;;5.00;81.80;;;;;;5049271;28;19982;-86
2022/12/14 10:03:48;;;;;;;;;;;5.20;81.70;;;;;;5053163;28;19947;-85
2022/12/14 10:06:33;;;;;;;;;;;5.20;81.50;;;;;;5050542;28;19986;-85
2022/12/14 10:09:13;;;;;;;;;;;5.30;80.50;;;;;;5045931;28;19937;-85
2022/12/14 10:11:54;;;;;;;;;;;5.20;79.60;;;;;;5029807;28;19941;-84
2022/12/14 10:14:25;;;;;;;;;;;5.30;79.60;;;;;;5054569;28;19938;-86
2022/12/14 10:17:06;;;;;;;;;;;5.40;79.80;;;;;;5047122;28;20040;-85
2022/12/14 10:19:45;;;;;;;;;;;5.40;79.00;;;;;;5054087;28;20041;-86
2022/12/14 10:22:16;;;;;;;;;;;5.70;77.80;;;;;;5056805;22;19971;-85
2022/12/14 10:24:43;;;;;;;;;;;5.90;75.90;;;;;;5031677;28;20304;-86
2022/12/14 10:27:15;;;;;;;;;;;5.90;76.00;;;;;;5049942;28;19963;-87
2022/12/14 10:29:47;;;;;;;;;;;6.00;75.20;;;;;;5052627;28;19945;-86
2022/12/14 10:32:17;;;;;;;;;;;6.10;74.30;;;;;;5046189;28;20266;-86
2022/12/14 10:34:43;;;;;;;;;;;5.90;75.20;;;;;;5044842;28;20071;-85
2022/12/14 10:37:17;;;;;;;;;;;5.80;73.40;;;;;;5044973;28;20362;-85
2022/12/14 10:40:08;;;;;;;;;;;5.70;73.90;;;;;;5047972;28;19944;-86
2022/12/14 10:42:34;;;;;;;;;;;5.70;71.90;;;;;;5047234;28;19951;-85
2022/12/14 10:45:18;;;;;;;;;;;5.90;72.70;;;;;;5049589;28;19942;-87
2022/12/14 10:47:46;;;;;;;;;;;5.90;73.40;;;;;;5049296;28;19950;-86
2022/12/14 10:50:24;;;;;;;;;;;6.00;73.30;;;;;;5052460;28;19942;-86
2022/12/14 10:52:51;;;;;;;;;;;6.20;72.60;;;;;;5045916;28;19961;-85
2022/12/14 10:55:22;;;;;;;;;;;6.50;73.00;;;;;;5051178;28;19942;-85
2022/12/14 10:57:47;;;;;;;;;;;6.70;71.50;;;;;;5046619;28;19959;-86
2022/12/14 11:00:16;;;;;;;;;;;7.00;69.70;;;;;;5047286;28;19957;-86
2022/12/14 11:02:43;;;;;;;;;;;7.00;69.10;;;;;;5052904;28;20462;-87
2022/12/14 11:05:15;;;;;;;;;;;6.90;68.50;;;;;;5044740;28;19965;-85
2022/12/14 11:07:44;;;;;;;;;;;6.70;69.20;;;;;;5044828;28;19988;-87
2022/12/14 11:10:13;;;;;;;;;;;6.70;69.40;;;;;;5037423;28;19945;-86
2022/12/14 11:12:38;;;;;;;;;;;6.70;69.60;;;;;;5052070;28;20093;-86
2022/12/14 11:15:08;;;;;;;;;;;6.80;68.50;;;;;;5050882;28;20029;-86
2022/12/14 11:17:36;;;;;;;;;;;6.80;67.30;;;;;;5050221;28;19972;-86
2022/12/14 11:20:07;;;;;;;;;;;7.00;67.20;;;;;;5052606;28;19953;-86
2022/12/14 11:22:43;;;;;;;;;;;7.10;66.70;;;;;;5051183;28;19973;-87
2022/12/14 11:25:26;;;;;;;;;;;7.20;68.00;;;;;;5053082;28;19950;-87
2022/12/14 11:27:51;;;;;;;;;;;7.40;66.50;;;;;;5052446;28;20033;-87
2022/12/14 11:30:17;;;;;;;;;;;7.60;65.90;;;;;;5053003;28;20409;-86
2022/12/14 11:32:45;;;;;;;;;;;7.90;65.50;;;;;;5051831;28;19956;-86
2022/12/14 11:35:15;;;;;;;;;;;7.80;65.20;;;;;;5051763;28;20359;-86
2022/12/14 11:37:41;;;;;;;;;;;7.80;65.90;;;;;;5035213;28;19994;-86
2022/12/14 11:40:17;;;;;;;;;;;7.40;64.00;;;;;;5052916;28;20435;-86
2022/12/14 11:42:46;;;;;;;;;;;7.40;63.80;;;;;;5051774;28;20326;-86
2022/12/14 11:45:24;;;;;;;;;;;7.30;64.70;;;;;;5052931;28;20004;-86
2022/12/14 11:48:07;;;;;;;;;;;7.30;66.40;;;;;;5057042;28;20024;-86
2022/12/14 11:50:33;;;;;;;;;;;7.30;66.30;;;;;;5056728;28;19942;-87
2022/12/14 11:53:05;;;;;;;;;;;7.20;66.40;;;;;;5054514;28;19968;-87
2022/12/14 11:55:34;;;;;;;;;;;7.20;67.10;;;;;;5053481;28;20429;-86
2022/12/14 11:57:59;;;;;;;;;;;7.30;67.80;;;;;;5056780;28;20327;-87
2022/12/14 12:00:27;;;;;;;;;;;7.50;66.00;;;;;;5056786;28;19938;-86
2022/12/14 12:02:52;;;;;;;;;;;7.80;64.90;;;;;;5053805;28;20298;-86
2022/12/14 12:05:19;;;;;;;;;;;7.90;63.80;;;;;;5037071;28;20488;-86
2022/12/14 12:07:48;;;;;;;;;;;8.00;63.60;;;;;;5054573;28;20022;-87
2022/12/14 12:10:14;;;;;;;;;;;7.90;64.90;;;;;;5056475;28;19957;-86
2022/12/14 12:13:06;;;;;;;;;;;7.80;64.60;;;;;;5053942;28;20391;-86
2022/12/14 12:15:37;;;;;;;;;;;7.70;65.10;;;;;;5054247;28;20078;-86
2022/12/14 12:18:04;;;;;;;;;;;7.50;65.20;;;;;;5037604;28;20244;-86
2022/12/14 12:20:39;;;;;;;;;;;7.40;65.60;;;;;;5053187;28;19950;-86
2022/12/14 12:23:12;;;;;;;;;;;7.40;65.80;;;;;;5048233;28;19980;-87
2022/12/14 12:25:38;;;;;;;;;;;7.40;66.60;;;;;;5055850;28;19950;-87
2022/12/14 12:28:09;;;;;;;;;;;7.40;67.30;;;;;;5053480;28;20414;-87
2022/12/14 12:30:38;;;;;;;;;;;7.40;67.30;;;;;;5052843;28;19946;-87
2022/12/14 12:33:24;;;;;;;;;;;7.30;67.90;;;;;;5047501;28;19943;-88
2022/12/14 12:35:51;;;;;;;;;;;7.40;68.00;;;;;;5021541;28;20413;-88
2022/12/14 12:38:29;;;;;;;;;;;7.40;68.00;;;;;;5052920;28;19986;-88
2022/12/14 12:40:55;;;;;;;;;;;7.40;68.70;;;;;;5051411;28;20422;-87
2022/12/14 12:43:24;;;;;;;;;;;7.30;69.20;;;;;;5054941;28;19947;-87
2022/12/14 12:45:53;;;;;;;;;;;7.10;70.00;;;;;;5053685;28;19947;-87
2022/12/14 12:48:24;;;;;;;;;;;7.00;70.90;;;;;;5052557;28;19949;-87
2022/12/14 12:50:52;;;;;;;;;;;6.80;71.60;;;;;;5049251;28;19946;-86
2022/12/14 12:53:30;;;;;;;;;;;6.70;72.70;;;;;;5054305;28;20003;-87
2022/12/14 12:56:00;;;;;;;;;;;6.60;72.40;;;;;;5051121;28;19951;-87
2022/12/14 12:58:27;;;;;;;;;;;6.60;72.70;;;;;;5051720;28;20056;-87
2022/12/14 13:00:55;;;;;;;;;;;6.60;72.40;;;;;;5049660;28;19956;-87
2022/12/14 13:03:26;;;;;;;;;;;6.40;73.30;;;;;;5046597;28;19949;-87
2022/12/14 13:05:53;;;;;;;;;;;6.40;73.20;;;;;;5049943;28;19952;-87
2022/12/14 13:08:27;;;;;;;;;;;6.50;73.60;;;;;;5042226;28;19974;-87
2022/12/14 13:10:54;;;;;;;;;;;6.50;75.60;;;;;;5046523;28;19951;-87
2022/12/14 13:13:25;;;;;;;;;;;6.60;76.70;;;;;;5048663;28;19959;-87
2022/12/14 13:16:21;;;;;;;;;;;6.50;77.30;;;;;;5044750;28;19950;-87
2022/12/14 13:18:48;;;;;;;;;;;6.50;77.50;;;;;;5041923;28;20431;-87
2022/12/14 13:21:16;;;;;;;;;;;6.60;78.50;;;;;;5051463;28;19974;-87
2022/12/14 13:23:42;;;;;;;;;;;6.60;78.80;;;;;;5048921;28;19951;-87
2022/12/14 13:26:26;;;;;;;;;;;6.40;77.40;;;;;;5052917;28;19964;-87
2022/12/14 13:29:00;;;;;;;;;;;6.40;76.30;;;;;;5047899;28;20028;-87
2022/12/14 13:31:29;;;;;;;;;;;6.40;75.90;;;;;;5048426;28;19944;-87
2022/12/14 13:33:54;;;;;;;;;;;6.50;75.30;;;;;;5048487;28;19979;-87
2022/12/14 13:36:26;;;;;;;;;;;6.60;75.50;;;;;;5043692;28;19986;-86
2022/12/14 13:39:07;;;;;;;;;;;6.60;75.90;;;;;;5045129;28;20439;-87
2022/12/14 13:41:35;;;;;;;;;;;6.50;74.60;;;;;;5051583;28;20026;-87
2022/12/14 13:44:23;;;;;;;;;;;6.60;75.20;;;;;;5043472;28;19987;-87
2022/12/14 13:47:00;;;;;;;;;;;6.70;75.60;;;;;;5045828;28;19951;-86
2022/12/14 13:49:26;;;;;;;;;;;6.60;75.10;;;;;;5050625;28;20002;-86
2022/12/14 13:51:51;;;;;;;;;;;6.60;75.70;;;;;;5050656;28;19949;-86
2022/12/14 13:54:19;;;;;;;;;;;6.80;75.60;;;;;;5050101;28;20024;-85
2022/12/14 13:56:45;;;;;;;;;;;6.80;75.40;;;;;;5051524;28;19945;-85
2022/12/14 13:59:25;;;;;;;;;;;6.70;75.60;;;;;;5051823;28;20046;-85
2022/12/14 14:01:52;;;;;;;;;;;6.50;75.90;;;;;;5051786;28;19945;-85
2022/12/14 14:04:19;;;;;;;;;;;6.50;76.80;;;;;;5050552;28;19987;-85
2022/12/14 14:06:46;;;;;;;;;;;6.60;77.40;;;;;;5049085;28;20024;-85
2022/12/14 14:09:30;;;;;;;;;;;6.60;77.50;;;;;;5046416;28;19945;-85
2022/12/14 14:11:56;;;;;;;;;;;6.60;77.20;;;;;;5046698;28;20037;-85
2022/12/14 14:14:33;;;;;;;;;;;6.60;77.20;;;;;;5047355;28;19955;-85
2022/12/14 14:17:02;;;;;;;;;;;6.60;77.10;;;;;;5046582;28;20030;-85
2022/12/14 14:19:33;;;;;;;;;;;6.60;77.40;;;;;;5043758;28;20423;-86
2022/12/14 14:21:59;;;;;;;;;;;6.60;77.50;;;;;;5043835;28;19969;-85
2022/12/14 14:24:26;;;;;;;;;;;6.60;77.50;;;;;;5043946;28;19943;-86
2022/12/14 14:26:59;;;;;;;;;;;6.60;77.80;;;;;;5045179;28;20284;-86
2022/12/14 14:29:27;;;;;;;;;;;6.60;78.20;;;;;;5046665;28;19952;-86
2022/12/14 14:31:54;;;;;;;;;;;6.60;78.20;;;;;;5047442;28;20436;-86
2022/12/14 14:34:44;;;;;;;;;;;6.70;78.90;;;;;;5031496;28;21596;-86
2022/12/14 14:37:19;;;;;;;;;;;6.60;79.50;;;;;;5044807;28;19950;-86
2022/12/14 14:39:53;;;;;;;;;;;6.50;80.20;;;;;;5027940;28;19971;-86
2022/12/14 14:42:21;;;;;;;;;;;6.30;81.00;;;;;;5047611;28;19949;-86
2022/12/14 14:44:50;;;;;;;;;;;6.20;81.30;;;;;;5045491;28;19952;-85
2022/12/14 14:47:22;;;;;;;;;;;6.20;81.10;;;;;;5045963;28;20468;-85
2022/12/14 14:49:51;;;;;;;;;;;6.20;81.10;;;;;;5047403;28;19965;-86
2022/12/14 14:52:35;;;;;;;;;;;6.10;80.20;;;;;;5047382;28;20061;-86
2022/12/14 14:55:21;;;;;;;;;;;6.10;80.50;;;;;;5043420;28;20395;-86